sensor_id;sensor_type;location;lat;lon;timestamp;pressure;altitude;pressure_sealevel;temperature;humidity
60240;BME280;46102;39.012;-7.064;2023-03-03T00:01:34;98838.06;;;7.45;43.69
60240;BME280;46102;39.012;-7.064;2023-03-03T00:03:35;98835.38;;;7.40;43.70
60240;BME280;46102;39.012;-7.064;2023-03-03T00:05:36;98832.66;;;7.40;43.61
60240;BME280;46102;39.012;-7.064;2023-03-03T00:07:37;98828.31;;;7.39;43.69
60240;BME280;46102;39.012;-7.064;2023-03-03T00:09:38;98836.78;;;7.37;43.68
60240;BME280;46102;39.012;-7.064;2023-03-03T00:11:39;98834.34;;;7.36;43.60
60240;BME280;46102;39.012;-7.064;2023-03-03T00:15:43;98839.50;;;7.37;43.52
60240;BME280;46102;39.012;-7.064;2023-03-03T00:17:44;98839.25;;;7.39;43.39
60240;BME280;46102;39.012;-7.064;2023-03-03T00:19:45;98839.69;;;7.46;43.16
60240;BME280;46102;39.012;-7.064;2023-03-03T00:21:48;98835.63;;;7.43;42.96
60240;BME280;46102;39.012;-7.064;2023-03-03T00:23:51;98843.81;;;7.43;42.97
60240;BME280;46102;39.012;-7.064;2023-03-03T00:25:52;98841.38;;;7.42;43.15
60240;BME280;46102;39.012;-7.064;2023-03-03T00:27:54;98833.19;;;7.42;43.15
60240;BME280;46102;39.012;-7.064;2023-03-03T00:29:56;98838.94;;;7.40;43.19
60240;BME280;46102;39.012;-7.064;2023-03-03T00:32:11;98835.13;;;7.41;42.93
60240;BME280;46102;39.012;-7.064;2023-03-03T00:36:35;98834.31;;;7.41;43.17
60240;BME280;46102;39.012;-7.064;2023-03-03T00:38:37;98838.72;;;7.37;42.97
60240;BME280;46102;39.012;-7.064;2023-03-03T00:40:39;98831.25;;;7.42;42.73
60240;BME280;46102;39.012;-7.064;2023-03-03T00:42:48;98826.94;;;7.36;42.59
60240;BME280;46102;39.012;-7.064;2023-03-03T00:46:56;98831.72;;;7.25;42.87
60240;BME280;46102;39.012;-7.064;2023-03-03T00:48:58;98832.81;;;7.24;43.01
60240;BME280;46102;39.012;-7.064;2023-03-03T00:51:00;98827.66;;;7.23;42.94
60240;BME280;46102;39.012;-7.064;2023-03-03T00:53:04;98832.28;;;7.22;42.92
60240;BME280;46102;39.012;-7.064;2023-03-03T00:55:06;98826.03;;;7.22;43.15
60240;BME280;46102;39.012;-7.064;2023-03-03T00:57:07;98832.59;;;7.21;43.28
60240;BME280;46102;39.012;-7.064;2023-03-03T00:59:10;98835.06;;;7.17;43.31
60240;BME280;46102;39.012;-7.064;2023-03-03T01:01:11;98828.81;;;7.17;43.40
60240;BME280;46102;39.012;-7.064;2023-03-03T01:03:20;98829.69;;;7.12;43.52
60240;BME280;46102;39.012;-7.064;2023-03-03T01:05:22;98819.84;;;7.11;43.60
60240;BME280;46102;39.012;-7.064;2023-03-03T01:07:23;98820.97;;;7.10;43.71
60240;BME280;46102;39.012;-7.064;2023-03-03T01:09:24;98834.59;;;7.10;43.58
60240;BME280;46102;39.012;-7.064;2023-03-03T01:11:26;98821.25;;;7.08;43.43
60240;BME280;46102;39.012;-7.064;2023-03-03T01:13:31;98835.19;;;7.07;43.72
60240;BME280;46102;39.012;-7.064;2023-03-03T01:15:32;98832.22;;;7.03;43.89
60240;BME280;46102;39.012;-7.064;2023-03-03T01:17:34;98832.47;;;7.02;44.03
60240;BME280;46102;39.012;-7.064;2023-03-03T01:19:35;98829.53;;;6.98;43.85
60240;BME280;46102;39.012;-7.064;2023-03-03T01:21:36;98824.63;;;6.95;43.87
60240;BME280;46102;39.012;-7.064;2023-03-03T01:23:37;98832.28;;;6.93;43.80
60240;BME280;46102;39.012;-7.064;2023-03-03T01:25:38;98835.06;;;6.88;43.87
60240;BME280;46102;39.012;-7.064;2023-03-03T01:27:39;98839.44;;;6.89;44.27
60240;BME280;46102;39.012;-7.064;2023-03-03T01:29:40;98832.91;;;6.85;44.40
60240;BME280;46102;39.012;-7.064;2023-03-03T01:31:40;98830.22;;;6.80;44.67
60240;BME280;46102;39.012;-7.064;2023-03-03T01:33:41;98828.34;;;6.75;45.02
60240;BME280;46102;39.012;-7.064;2023-03-03T01:35:44;98830.84;;;6.72;44.90
60240;BME280;46102;39.012;-7.064;2023-03-03T01:37:45;98823.53;;;6.67;45.10
60240;BME280;46102;39.012;-7.064;2023-03-03T01:39:49;98813.22;;;6.59;45.08
60240;BME280;46102;39.012;-7.064;2023-03-03T01:41:50;98814.34;;;6.53;45.48
60240;BME280;46102;39.012;-7.064;2023-03-03T01:43:51;98826.16;;;6.43;45.32
60240;BME280;46102;39.012;-7.064;2023-03-03T01:48:03;98819.09;;;6.37;45.52
60240;BME280;46102;39.012;-7.064;2023-03-03T01:50:11;98813.09;;;6.40;45.75
60240;BME280;46102;39.012;-7.064;2023-03-03T01:52:30;98814.97;;;6.44;45.93
60240;BME280;46102;39.012;-7.064;2023-03-03T01:54:37;98815.19;;;6.48;45.27
60240;BME280;46102;39.012;-7.064;2023-03-03T01:56:40;98819.25;;;6.51;45.34
60240;BME280;46102;39.012;-7.064;2023-03-03T01:58:45;98811.91;;;6.51;45.65
60240;BME280;46102;39.012;-7.064;2023-03-03T02:00:53;98810.59;;;6.49;45.44
60240;BME280;46102;39.012;-7.064;2023-03-03T02:02:55;98815.25;;;6.43;45.97
60240;BME280;46102;39.012;-7.064;2023-03-03T02:04:56;98809.88;;;6.33;46.56
60240;BME280;46102;39.012;-7.064;2023-03-03T02:07:00;98800.16;;;6.21;46.28
60240;BME280;46102;39.012;-7.064;2023-03-03T02:11:07;98800.19;;;6.11;46.77
60240;BME280;46102;39.012;-7.064;2023-03-03T02:13:09;98794.75;;;6.11;46.76
60240;BME280;46102;39.012;-7.064;2023-03-03T02:15:26;98791.50;;;6.09;46.67
60240;BME280;46102;39.012;-7.064;2023-03-03T02:17:27;98790.38;;;6.10;46.34
60240;BME280;46102;39.012;-7.064;2023-03-03T02:21:32;98785.50;;;6.07;46.74
60240;BME280;46102;39.012;-7.064;2023-03-03T02:27:57;98788.00;;;5.93;47.59
60240;BME280;46102;39.012;-7.064;2023-03-03T02:30:08;98785.28;;;5.93;47.72
60240;BME280;46102;39.012;-7.064;2023-03-03T02:32:10;98782.84;;;5.92;47.61
60240;BME280;46102;39.012;-7.064;2023-03-03T02:34:10;98778.22;;;5.87;47.64
60240;BME280;46102;39.012;-7.064;2023-03-03T02:36:13;98778.28;;;5.82;48.19
60240;BME280;46102;39.012;-7.064;2023-03-03T02:38:36;98775.56;;;5.77;47.91
60240;BME280;46102;39.012;-7.064;2023-03-03T02:40:43;98772.59;;;5.73;48.31
60240;BME280;46102;39.012;-7.064;2023-03-03T02:42:48;98764.38;;;5.78;47.71
60240;BME280;46102;39.012;-7.064;2023-03-03T02:44:52;98762.75;;;5.82;47.78
60240;BME280;46102;39.012;-7.064;2023-03-03T02:46:54;98756.19;;;5.89;47.52
60240;BME280;46102;39.012;-7.064;2023-03-03T02:48:55;98755.34;;;5.93;47.51
60240;BME280;46102;39.012;-7.064;2023-03-03T02:50:55;98757.72;;;6.05;46.65
60240;BME280;46102;39.012;-7.064;2023-03-03T02:52:56;98749.28;;;6.07;46.96
60240;BME280;46102;39.012;-7.064;2023-03-03T02:54:57;98746.00;;;6.10;46.91
60240;BME280;46102;39.012;-7.064;2023-03-03T02:56:59;98745.19;;;6.09;47.19
60240;BME280;46102;39.012;-7.064;2023-03-03T02:59:00;98739.47;;;6.05;47.01
60240;BME280;46102;39.012;-7.064;2023-03-03T03:01:04;98747.66;;;6.05;46.54
60240;BME280;46102;39.012;-7.064;2023-03-03T03:03:06;98741.44;;;6.00;46.77
60240;BME280;46102;39.012;-7.064;2023-03-03T03:05:08;98741.47;;;5.95;47.15
60240;BME280;46102;39.012;-7.064;2023-03-03T03:07:09;98739.03;;;5.88;47.01
60240;BME280;46102;39.012;-7.064;2023-03-03T03:09:13;98733.91;;;5.81;47.30
60240;BME280;46102;39.012;-7.064;2023-03-03T03:11:14;98730.91;;;5.78;47.24
60240;BME280;46102;39.012;-7.064;2023-03-03T03:13:16;98731.72;;;5.78;47.18
60240;BME280;46102;39.012;-7.064;2023-03-03T03:15:18;98727.38;;;5.77;46.99
60240;BME280;46102;39.012;-7.064;2023-03-03T03:17:19;98733.63;;;5.78;47.69
60240;BME280;46102;39.012;-7.064;2023-03-03T03:19:20;98733.09;;;5.76;47.61
60240;BME280;46102;39.012;-7.064;2023-03-03T03:21:21;98735.28;;;5.74;47.20
60240;BME280;46102;39.012;-7.064;2023-03-03T03:23:23;98737.19;;;5.73;47.20
60240;BME280;46102;39.012;-7.064;2023-03-03T03:25:23;98728.19;;;5.78;47.63
60240;BME280;46102;39.012;-7.064;2023-03-03T03:27:24;98736.94;;;5.75;47.24
60240;BME280;46102;39.012;-7.064;2023-03-03T03:29:26;98731.22;;;5.71;47.43
60240;BME280;46102;39.012;-7.064;2023-03-03T03:31:27;98737.22;;;5.68;47.04
60240;BME280;46102;39.012;-7.064;2023-03-03T03:33:28;98735.59;;;5.67;47.00
60240;BME280;46102;39.012;-7.064;2023-03-03T03:35:32;98724.16;;;5.65;47.53
60240;BME280;46102;39.012;-7.064;2023-03-03T03:37:33;98722.56;;;5.64;46.98
60240;BME280;46102;39.012;-7.064;2023-03-03T03:39:34;98730.19;;;5.62;47.65
60240;BME280;46102;39.012;-7.064;2023-03-03T03:41:36;98726.69;;;5.56;47.35
60240;BME280;46102;39.012;-7.064;2023-03-03T03:43:37;98717.72;;;5.51;47.43
60240;BME280;46102;39.012;-7.064;2023-03-03T03:45:41;98719.94;;;5.43;47.66
60240;BME280;46102;39.012;-7.064;2023-03-03T03:47:42;98721.63;;;5.34;48.06
60240;BME280;46102;39.012;-7.064;2023-03-03T03:49:43;98714.00;;;5.31;48.55
60240;BME280;46102;39.012;-7.064;2023-03-03T03:51:43;98709.38;;;5.27;48.09
60240;BME280;46102;39.012;-7.064;2023-03-03T03:53:48;98711.88;;;5.23;48.61
60240;BME280;46102;39.012;-7.064;2023-03-03T03:55:49;98712.69;;;5.18;48.09
60240;BME280;46102;39.012;-7.064;2023-03-03T03:57:51;98711.34;;;5.16;48.56
60240;BME280;46102;39.012;-7.064;2023-03-03T03:59:51;98706.69;;;5.21;48.34
60240;BME280;46102;39.012;-7.064;2023-03-03T04:01:52;98708.34;;;5.22;49.22
60240;BME280;46102;39.012;-7.064;2023-03-03T04:03:55;98711.06;;;5.22;49.33
60240;BME280;46102;39.012;-7.064;2023-03-03T04:05:58;98711.06;;;5.22;49.17
60240;BME280;46102;39.012;-7.064;2023-03-03T04:07:59;98705.34;;;5.19;48.97
60240;BME280;46102;39.012;-7.064;2023-03-03T04:10:01;98708.34;;;5.17;48.93
60240;BME280;46102;39.012;-7.064;2023-03-03T04:12:02;98715.16;;;5.15;48.96
60240;BME280;46102;39.012;-7.064;2023-03-03T04:14:04;98717.34;;;5.13;49.56
60240;BME280;46102;39.012;-7.064;2023-03-03T04:16:06;98724.97;;;5.06;49.35
60240;BME280;46102;39.012;-7.064;2023-03-03T04:18:08;98722.53;;;5.04;49.55
60240;BME280;46102;39.012;-7.064;2023-03-03T04:20:12;98727.41;;;5.02;49.71
60240;BME280;46102;39.012;-7.064;2023-03-03T04:22:15;98728.53;;;5.01;50.00
60240;BME280;46102;39.012;-7.064;2023-03-03T04:24:17;98719.56;;;5.00;49.73
60240;BME280;46102;39.012;-7.064;2023-03-03T04:26:20;98716.28;;;4.98;49.52
60240;BME280;46102;39.012;-7.064;2023-03-03T04:28:22;98714.41;;;4.94;49.23
60240;BME280;46102;39.012;-7.064;2023-03-03T04:30:25;98716.31;;;4.88;50.15
60240;BME280;46102;39.012;-7.064;2023-03-03T04:32:29;98714.72;;;4.82;50.21
60240;BME280;46102;39.012;-7.064;2023-03-03T04:34:33;98721.22;;;4.81;50.31
60240;BME280;46102;39.012;-7.064;2023-03-03T04:36:35;98716.34;;;4.78;50.49
60240;BME280;46102;39.012;-7.064;2023-03-03T04:38:36;98721.22;;;4.81;50.24
60240;BME280;46102;39.012;-7.064;2023-03-03T04:40:39;98727.47;;;4.82;50.12
60240;BME280;46102;39.012;-7.064;2023-03-03T04:42:41;98729.66;;;4.85;49.88
60240;BME280;46102;39.012;-7.064;2023-03-03T04:44:43;98722.84;;;4.87;49.64
60240;BME280;46102;39.012;-7.064;2023-03-03T04:46:44;98720.94;;;4.88;50.42
60240;BME280;46102;39.012;-7.064;2023-03-03T04:48:45;98727.47;;;4.92;49.55
60240;BME280;46102;39.012;-7.064;2023-03-03T04:50:47;98719.84;;;4.94;50.38
60240;BME280;46102;39.012;-7.064;2023-03-03T04:52:48;98728.53;;;4.96;50.19
60240;BME280;46102;39.012;-7.064;2023-03-03T04:54:49;98722.03;;;4.92;50.32
60240;BME280;46102;39.012;-7.064;2023-03-03T04:56:50;98715.50;;;4.88;49.68
60240;BME280;46102;39.012;-7.064;2023-03-03T04:58:52;98716.88;;;4.85;49.93
60240;BME280;46102;39.012;-7.064;2023-03-03T05:00:54;98713.88;;;4.82;50.36
60240;BME280;46102;39.012;-7.064;2023-03-03T05:02:55;98710.94;;;4.73;50.51
60240;BME280;46102;39.012;-7.064;2023-03-03T05:04:57;98710.94;;;4.68;50.31
60240;BME280;46102;39.012;-7.064;2023-03-03T05:06:58;98709.31;;;4.67;50.75
60240;BME280;46102;39.012;-7.064;2023-03-03T05:08:58;98715.56;;;4.67;50.84
60240;BME280;46102;39.012;-7.064;2023-03-03T05:10:59;98716.09;;;4.64;51.23
60240;BME280;46102;39.012;-7.064;2023-03-03T05:13:00;98722.63;;;4.63;50.57
60240;BME280;46102;39.012;-7.064;2023-03-03T05:15:01;98715.81;;;4.66;50.10
60240;BME280;46102;39.012;-7.064;2023-03-03T05:17:03;98708.50;;;4.66;50.55
60240;BME280;46102;39.012;-7.064;2023-03-03T05:19:05;98712.03;;;4.67;50.28
60240;BME280;46102;39.012;-7.064;2023-03-03T05:21:06;98709.00;;;4.68;50.32
60240;BME280;46102;39.012;-7.064;2023-03-03T05:23:06;98707.94;;;4.69;50.76
60240;BME280;46102;39.012;-7.064;2023-03-03T05:25:07;98714.47;;;4.73;49.86
60240;BME280;46102;39.012;-7.064;2023-03-03T05:27:10;98713.91;;;4.76;49.57
60240;BME280;46102;39.012;-7.064;2023-03-03T05:29:11;98709.81;;;4.79;49.26
60240;BME280;46102;39.012;-7.064;2023-03-03T05:31:12;98719.84;;;4.84;49.51
60240;BME280;46102;39.012;-7.064;2023-03-03T05:33:14;98715.78;;;4.81;49.62
60240;BME280;46102;39.012;-7.064;2023-03-03T05:35:15;98729.13;;;4.77;50.12
60240;BME280;46102;39.012;-7.064;2023-03-03T05:37:16;98726.41;;;4.77;50.42
60240;BME280;46102;39.012;-7.064;2023-03-03T05:39:17;98727.75;;;4.75;51.61
60240;BME280;46102;39.012;-7.064;2023-03-03T05:41:18;98727.50;;;4.71;51.67
60240;BME280;46102;39.012;-7.064;2023-03-03T05:43:19;98724.81;;;4.66;52.38
60240;BME280;46102;39.012;-7.064;2023-03-03T05:45:20;98724.25;;;4.59;52.39
60240;BME280;46102;39.012;-7.064;2023-03-03T05:47:23;98721.00;;;4.52;52.38
60240;BME280;46102;39.012;-7.064;2023-03-03T05:49:25;98725.09;;;4.49;52.71
60240;BME280;46102;39.012;-7.064;2023-03-03T05:51:26;98719.91;;;4.48;53.11
60240;BME280;46102;39.012;-7.064;2023-03-03T05:53:27;98730.53;;;4.44;53.13
60240;BME280;46102;39.012;-7.064;2023-03-03T05:55:28;98728.59;;;4.34;53.28
60240;BME280;46102;39.012;-7.064;2023-03-03T05:57:29;98726.16;;;4.28;53.46
60240;BME280;46102;39.012;-7.064;2023-03-03T05:59:29;98725.38;;;4.22;53.24
60240;BME280;46102;39.012;-7.064;2023-03-03T06:01:30;98728.06;;;4.22;53.23
60240;BME280;46102;39.012;-7.064;2023-03-03T06:03:32;98724.81;;;4.20;53.22
60240;BME280;46102;39.012;-7.064;2023-03-03T06:05:33;98730.53;;;4.24;53.07
60240;BME280;46102;39.012;-7.064;2023-03-03T06:07:33;98721.53;;;4.23;53.22
60240;BME280;46102;39.012;-7.064;2023-03-03T06:09:34;98730.78;;;4.22;52.91
60240;BME280;46102;39.012;-7.064;2023-03-03T06:11:35;98727.25;;;4.16;53.27
60240;BME280;46102;39.012;-7.064;2023-03-03T06:13:36;98732.69;;;4.06;53.32
60240;BME280;46102;39.012;-7.064;2023-03-03T06:15:37;98737.84;;;4.03;53.29
60240;BME280;46102;39.012;-7.064;2023-03-03T06:17:38;98740.53;;;4.03;53.01
60240;BME280;46102;39.012;-7.064;2023-03-03T06:19:39;98734.59;;;4.06;53.56
60240;BME280;46102;39.012;-7.064;2023-03-03T06:21:41;98742.19;;;4.09;52.79
60240;BME280;46102;39.012;-7.064;2023-03-03T06:23:41;98742.47;;;4.12;52.54
60240;BME280;46102;39.012;-7.064;2023-03-03T06:25:42;98743.03;;;4.14;53.04
60240;BME280;46102;39.012;-7.064;2023-03-03T06:27:43;98736.75;;;4.14;52.83
60240;BME280;46102;39.012;-7.064;2023-03-03T06:29:44;98746.81;;;4.13;52.98
60240;BME280;46102;39.012;-7.064;2023-03-03T06:31:45;98749.28;;;4.10;52.66
60240;BME280;46102;39.012;-7.064;2023-03-03T06:33:46;98751.69;;;4.06;53.34
60240;BME280;46102;39.012;-7.064;2023-03-03T06:35:51;98752.25;;;4.03;53.45
60240;BME280;46102;39.012;-7.064;2023-03-03T06:37:52;98753.31;;;4.02;53.79
60240;BME280;46102;39.012;-7.064;2023-03-03T06:39:53;98747.63;;;3.99;53.69
60240;BME280;46102;39.012;-7.064;2023-03-03T06:41:53;98746.78;;;3.98;53.37
60240;BME280;46102;39.012;-7.064;2023-03-03T06:43:54;98749.53;;;4.03;53.24
60240;BME280;46102;39.012;-7.064;2023-03-03T06:45:55;98748.97;;;4.01;53.80
60240;BME280;46102;39.012;-7.064;2023-03-03T06:47:56;98752.50;;;4.07;53.64
60240;BME280;46102;39.012;-7.064;2023-03-03T06:49:57;98748.44;;;4.09;53.72
60240;BME280;46102;39.012;-7.064;2023-03-03T06:51:59;98741.38;;;4.08;53.35
60240;BME280;46102;39.012;-7.064;2023-03-03T06:54:09;98744.63;;;4.05;53.31
60240;BME280;46102;39.012;-7.064;2023-03-03T06:56:11;98747.88;;;3.97;54.10
60240;BME280;46102;39.012;-7.064;2023-03-03T06:58:14;98745.97;;;3.92;53.72
60240;BME280;46102;39.012;-7.064;2023-03-03T07:00:21;98748.13;;;3.85;54.02
60240;BME280;46102;39.012;-7.064;2023-03-03T07:02:23;98746.50;;;3.79;53.98
60240;BME280;46102;39.012;-7.064;2023-03-03T07:04:27;98750.28;;;3.78;54.40
60240;BME280;46102;39.012;-7.064;2023-03-03T07:06:28;98750.28;;;3.78;54.21
60240;BME280;46102;39.012;-7.064;2023-03-03T07:08:31;98753.28;;;3.82;54.54
60240;BME280;46102;39.012;-7.064;2023-03-03T07:10:32;98749.75;;;3.86;54.13
60240;BME280;46102;39.012;-7.064;2023-03-03T07:12:34;98751.94;;;3.94;54.45
60240;BME280;46102;39.012;-7.064;2023-03-03T07:14:42;98756.03;;;4.02;54.41
60240;BME280;46102;39.012;-7.064;2023-03-03T07:16:43;98751.97;;;4.10;54.73
60240;BME280;46102;39.012;-7.064;2023-03-03T07:18:50;98761.22;;;4.19;53.81
60240;BME280;46102;39.012;-7.064;2023-03-03T07:20:52;98764.47;;;4.52;53.63
60240;BME280;46102;39.012;-7.064;2023-03-03T07:22:52;98770.94;;;5.02;53.00
60240;BME280;46102;39.012;-7.064;2023-03-03T07:24:56;98766.69;;;5.56;52.34
60240;BME280;46102;39.012;-7.064;2023-03-03T07:29:27;98773.97;;;6.60;49.94
60240;BME280;46102;39.012;-7.064;2023-03-03T07:31:34;98768.66;;;7.03;48.27
60240;BME280;46102;39.012;-7.064;2023-03-03T07:33:43;98774.75;;;7.43;47.38
60240;BME280;46102;39.012;-7.064;2023-03-03T07:35:45;98775.44;;;7.78;46.15
60240;BME280;46102;39.012;-7.064;2023-03-03T07:37:47;98769.16;;;7.96;45.49
60240;BME280;46102;39.012;-7.064;2023-03-03T07:39:49;98781.84;;;8.06;45.25
60240;BME280;46102;39.012;-7.064;2023-03-03T07:41:50;98776.84;;;8.13;45.04
60240;BME280;46102;39.012;-7.064;2023-03-03T07:43:54;98785.88;;;8.13;44.88
60240;BME280;46102;39.012;-7.064;2023-03-03T07:46:22;98784.03;;;8.09;44.38
60240;BME280;46102;39.012;-7.064;2023-03-03T07:48:30;98789.09;;;7.97;45.13
60240;BME280;46102;39.012;-7.064;2023-03-03T07:50:34;98798.47;;;7.90;44.98
60240;BME280;46102;39.012;-7.064;2023-03-03T07:54:39;98796.94;;;8.03;45.20
60240;BME280;46102;39.012;-7.064;2023-03-03T07:56:41;98799.00;;;8.11;45.46
60240;BME280;46102;39.012;-7.064;2023-03-03T07:58:42;98798.03;;;8.21;45.14
60240;BME280;46102;39.012;-7.064;2023-03-03T08:03:19;98803.97;;;8.47;44.40
60240;BME280;46102;39.012;-7.064;2023-03-03T08:05:27;98812.84;;;8.58;44.27
60240;BME280;46102;39.012;-7.064;2023-03-03T08:07:29;98810.16;;;8.72;44.49
60240;BME280;46102;39.012;-7.064;2023-03-03T08:09:51;98807.56;;;8.81;43.66
60240;BME280;46102;39.012;-7.064;2023-03-03T08:14:00;98821.81;;;8.78;44.10
60240;BME280;46102;39.012;-7.064;2023-03-03T08:16:20;98824.56;;;8.78;44.38
60240;BME280;46102;39.012;-7.064;2023-03-03T08:18:29;98834.25;;;8.70;45.12
60240;BME280;46102;39.012;-7.064;2023-03-03T08:20:42;98827.91;;;8.74;45.04
60240;BME280;46102;39.012;-7.064;2023-03-03T08:22:46;98834.41;;;8.79;44.53
60240;BME280;46102;39.012;-7.064;2023-03-03T08:24:47;98838.78;;;8.93;44.24
60240;BME280;46102;39.012;-7.064;2023-03-03T08:26:47;98833.56;;;9.11;44.17
60240;BME280;46102;39.012;-7.064;2023-03-03T08:28:49;98832.91;;;9.33;44.17
60240;BME280;46102;39.012;-7.064;2023-03-03T08:30:50;98837.09;;;9.58;43.50
60240;BME280;46102;39.012;-7.064;2023-03-03T08:32:50;98840.22;;;9.79;43.14
60240;BME280;46102;39.012;-7.064;2023-03-03T08:34:51;98841.84;;;9.94;43.14
60240;BME280;46102;39.012;-7.064;2023-03-03T08:36:52;98841.03;;;10.07;42.61
60240;BME280;46102;39.012;-7.064;2023-03-03T08:38:53;98834.09;;;10.24;42.21
60240;BME280;46102;39.012;-7.064;2023-03-03T08:40:54;98826.88;;;10.41;41.79
60240;BME280;46102;39.012;-7.064;2023-03-03T08:42:55;98832.66;;;10.40;41.15
60240;BME280;46102;39.012;-7.064;2023-03-03T08:44:56;98828.56;;;10.51;41.42
60240;BME280;46102;39.012;-7.064;2023-03-03T08:46:57;98824.72;;;10.75;40.96
60240;BME280;46102;39.012;-7.064;2023-03-03T08:48:58;98826.81;;;11.00;40.51
60240;BME280;46102;39.012;-7.064;2023-03-03T08:50:59;98830.34;;;11.23;39.68
60240;BME280;46102;39.012;-7.064;2023-03-03T08:52:59;98828.47;;;11.33;39.13
60240;BME280;46102;39.012;-7.064;2023-03-03T08:55:00;98823.16;;;11.36;38.71
60240;BME280;46102;39.012;-7.064;2023-03-03T08:57:01;98834.03;;;11.50;38.75
60240;BME280;46102;39.012;-7.064;2023-03-03T08:59:02;98834.41;;;11.66;38.12
60240;BME280;46102;39.012;-7.064;2023-03-03T09:01:03;98827.00;;;11.75;37.69
60240;BME280;46102;39.012;-7.064;2023-03-03T09:03:04;98834.56;;;11.92;37.39
60240;BME280;46102;39.012;-7.064;2023-03-03T09:05:07;98828.94;;;12.15;37.75
60240;BME280;46102;39.012;-7.064;2023-03-03T09:07:08;98834.97;;;12.34;37.51
60240;BME280;46102;39.012;-7.064;2023-03-03T09:09:09;98830.94;;;12.58;37.16
60240;BME280;46102;39.012;-7.064;2023-03-03T09:11:13;98831.41;;;12.68;37.32
60240;BME280;46102;39.012;-7.064;2023-03-03T09:13:16;98833.03;;;12.69;37.22
60240;BME280;46102;39.012;-7.064;2023-03-03T09:15:35;98827.53;;;12.69;36.60
60240;BME280;46102;39.012;-7.064;2023-03-03T09:17:37;98828.19;;;12.75;36.91
60240;BME280;46102;39.012;-7.064;2023-03-03T09:19:38;98829.63;;;12.81;36.28
60240;BME280;46102;39.012;-7.064;2023-03-03T09:21:40;98845.00;;;13.00;36.40
60240;BME280;46102;39.012;-7.064;2023-03-03T09:23:41;98834.09;;;13.21;35.83
60240;BME280;46102;39.012;-7.064;2023-03-03T09:25:42;98836.53;;;13.40;34.96
60240;BME280;46102;39.012;-7.064;2023-03-03T09:27:43;98833.59;;;13.45;34.38
60240;BME280;46102;39.012;-7.064;2023-03-03T09:29:44;98840.19;;;13.52;34.51
60240;BME280;46102;39.012;-7.064;2023-03-03T09:31:48;98845.44;;;13.75;33.99
60240;BME280;46102;39.012;-7.064;2023-03-03T09:33:49;98836.75;;;14.03;33.42
60240;BME280;46102;39.012;-7.064;2023-03-03T09:35:53;98835.38;;;14.09;32.68
60240;BME280;46102;39.012;-7.064;2023-03-03T09:37:57;98840.06;;;14.17;32.21
60240;BME280;46102;39.012;-7.064;2023-03-03T09:39:58;98842.75;;;14.26;32.53
60240;BME280;46102;39.012;-7.064;2023-03-03T09:46:52;98849.72;;;13.64;35.78
60240;BME280;46102;39.012;-7.064;2023-03-03T09:53:41;98850.38;;;13.99;35.11
60240;BME280;46102;39.012;-7.064;2023-03-03T09:56:08;98846.81;;;13.99;35.04
60240;BME280;46102;39.012;-7.064;2023-03-03T10:05:06;98834.13;;;14.27;35.55
60240;BME280;46102;39.012;-7.064;2023-03-03T10:14:56;98835.91;;;14.53;35.53
60240;BME280;46102;39.012;-7.064;2023-03-03T10:19:37;98838.63;;;14.83;35.02
60240;BME280;46102;39.012;-7.064;2023-03-03T10:21:43;98836.91;;;14.90;34.99
60240;BME280;46102;39.012;-7.064;2023-03-03T10:24:03;98839.75;;;15.03;34.40
60240;BME280;46102;39.012;-7.064;2023-03-03T10:33:01;98833.75;;;15.46;34.04
60240;BME280;46102;39.012;-7.064;2023-03-03T10:40:21;98837.88;;;15.86;33.17
60240;BME280;46102;39.012;-7.064;2023-03-03T10:53:33;98830.16;;;16.03;32.34
60240;BME280;46102;39.012;-7.064;2023-03-03T11:05:07;98822.19;;;16.55;30.84
60240;BME280;46102;39.012;-7.064;2023-03-03T11:07:18;98817.19;;;16.85;30.89
60240;BME280;46102;39.012;-7.064;2023-03-03T11:09:43;98810.50;;;17.30;30.19
60240;BME280;46102;39.012;-7.064;2023-03-03T11:11:52;98808.97;;;17.48;29.60
60240;BME280;46102;39.012;-7.064;2023-03-03T11:14:11;98805.06;;;17.65;28.72
60240;BME280;46102;39.012;-7.064;2023-03-03T11:18:20;98810.81;;;17.88;28.39
60240;BME280;46102;39.012;-7.064;2023-03-03T11:20:37;98819.59;;;18.26;28.45
60240;BME280;46102;39.012;-7.064;2023-03-03T11:29:34;98801.38;;;17.61;28.75
60240;BME280;46102;39.012;-7.064;2023-03-03T11:36:16;98795.75;;;17.89;28.02
60240;BME280;46102;39.012;-7.064;2023-03-03T11:38:44;98792.91;;;18.21;27.63
60240;BME280;46102;39.012;-7.064;2023-03-03T11:40:56;98787.06;;;17.91;27.83
60240;BME280;46102;39.012;-7.064;2023-03-03T11:45:12;98783.72;;;18.37;27.70
60240;BME280;46102;39.012;-7.064;2023-03-03T11:54:04;98769.66;;;19.27;26.42
60240;BME280;46102;39.012;-7.064;2023-03-03T11:58:44;98775.25;;;19.50;25.96
60240;BME280;46102;39.012;-7.064;2023-03-03T12:00:47;98764.59;;;19.32;26.00
60240;BME280;46102;39.012;-7.064;2023-03-03T12:03:03;98766.81;;;19.46;25.67
60240;BME280;46102;39.012;-7.064;2023-03-03T12:07:39;98757.50;;;19.35;25.66
60240;BME280;46102;39.012;-7.064;2023-03-03T12:12:06;98747.09;;;19.55;25.80
60240;BME280;46102;39.012;-7.064;2023-03-03T12:18:52;98741.44;;;19.71;25.39
60240;BME280;46102;39.012;-7.064;2023-03-03T12:34:31;98713.28;;;20.67;23.50
60240;BME280;46102;39.012;-7.064;2023-03-03T12:36:42;98711.97;;;20.91;23.04
60240;BME280;46102;39.012;-7.064;2023-03-03T12:43:41;98697.06;;;20.76;19.94
60240;BME280;46102;39.012;-7.064;2023-03-03T12:46:17;98691.22;;;20.54;19.61
60240;BME280;46102;39.012;-7.064;2023-03-03T12:48:31;98689.78;;;20.34;19.80
60240;BME280;46102;39.012;-7.064;2023-03-03T13:01:55;98682.81;;;20.51;19.73
60240;BME280;46102;39.012;-7.064;2023-03-03T13:06:47;98674.31;;;21.11;19.34
60240;BME280;46102;39.012;-7.064;2023-03-03T13:11:41;98659.19;;;21.60;18.56
60240;BME280;46102;39.012;-7.064;2023-03-03T13:16:05;98656.19;;;21.39;18.51
60240;BME280;46102;39.012;-7.064;2023-03-03T13:18:24;98654.47;;;21.20;19.08
60240;BME280;46102;39.012;-7.064;2023-03-03T13:22:58;98654.19;;;20.88;20.38
60240;BME280;46102;39.012;-7.064;2023-03-03T13:27:27;98652.00;;;21.08;20.14
60240;BME280;46102;39.012;-7.064;2023-03-03T13:29:38;98652.78;;;21.08;20.75
60240;BME280;46102;39.012;-7.064;2023-03-03T13:31:47;98640.91;;;21.18;20.33
60240;BME280;46102;39.012;-7.064;2023-03-03T13:33:55;98632.38;;;21.00;20.75
60240;BME280;46102;39.012;-7.064;2023-03-03T13:36:02;98633.34;;;21.19;21.07